Terminal Aerodrome Forecast
Issued by NWS Denver/Boulder, CO

Home | Current Version | Previous Version | Text Only | Print | Product List | Glossary On
Versions: 1 2 3 4 5 6 7 8 9 10 11 12 13 14 15 16 17 18 19 20 21 22 23 24 25 26 27 28 29 30 31 32 33 34 35 36 37 38 39 40 41 42 43 44 45 46 47 48 49 50
000
FTUS45 KBOU 291410 AAB
TAFDEN
TAF AMD
KDEN 291410Z 2914/3018 08006KT 2SM -SN SCT002 OVC006
      TEMPO 2914/2915 1 1/2SM -SN BR VV002
     FM291500 07008KT 3/4SM -SN BR VV004
     FM292200 02011KT 2SM -SN BR BKN008 OVC015
     FM300100 36008KT 4SM -SN BR BKN012 OVC020
     FM300500 34011KT 5SM BR BKN008 OVC022
      TEMPO 3005/3009 2SM -SN BR OVC006=

USA.gov is the U.S. government's official web portal to all federal, state and local government web resources and services.